Strona główna
METAR-TAF:

METAR-TAF

Lotnisko :

Fourchambault

Nevers, Francja

Szerokość geograficzna: 47-00N, Długość geograficzna: 003-06E, wysokość: 180 m

Aktualna obserwacja pogody

Raport powstał 33 minut temu, godzina 10:30 UTC
Wiatr 10 kt od zachodnio-południowy zachód, zmienny między południowo-południowy zachód i zachód
Temperatura 22°C
Wilgotność 57%
Ciśnienie 1016 hPa
Widzialność 10 km lub więcej
Przerywane chmury na wysokości 3100 ft
Przerywane chmury na wysokości 23000 ft

METAR: LFQG 181030Z AUTO 25010KT 210V280 9999 BKN031 BKN230 22/13 Q1016

czas: 13:03 (11:03 UTC)


TAF: brakujący

Obserwacja i prognoza pogody dla ponad 4000 lotnisk (raport METAR i TAF).

Dostępne stacje oznaczono żółtymi i czerwonymi punktami na mapie.

Najedź kursorem aby zobaczyć nazwę stacji.

Kliknij aby zobaczyć obserwacje i prognozy pogody.

Aby zmienić mapę: kliknij na zielony przycisk z czarnym krzyżykiem, aby powiększyć; na zielony przycisk z myślnikiem, aby pomniejszyć; na zielone strzałki, aby przejść do map sąsiednich.


METAR-TAF: